sensor_id;sensor_type;location;lat;lon;timestamp;P1;durP1;ratioP1;P2;durP2;ratioP2
5587;SDS011;2816;49.778;9.986;2023-04-09T00:01:20;20.20;;;13.83;;
5587;SDS011;2816;49.778;9.986;2023-04-09T00:03:46;20.70;;;13.20;;
5587;SDS011;2816;49.778;9.986;2023-04-09T00:06:13;20.63;;;14.60;;
5587;SDS011;2816;49.778;9.986;2023-04-09T00:08:40;18.93;;;13.63;;
5587;SDS011;2816;49.778;9.986;2023-04-09T00:11:07;20.40;;;13.90;;
5587;SDS011;2816;49.778;9.986;2023-04-09T00:13:34;20.93;;;13.80;;
5587;SDS011;2816;49.778;9.986;2023-04-09T00:16:03;23.93;;;14.50;;
5587;SDS011;2816;49.778;9.986;2023-04-09T00:18:30;19.47;;;13.37;;
5587;SDS011;2816;49.778;9.986;2023-04-09T00:20:57;21.00;;;14.20;;
5587;SDS011;2816;49.778;9.986;2023-04-09T00:23:24;25.67;;;14.50;;
5587;SDS011;2816;49.778;9.986;2023-04-09T00:25:51;18.90;;;14.13;;
5587;SDS011;2816;49.778;9.986;2023-04-09T00:28:18;22.53;;;14.63;;
5587;SDS011;2816;49.778;9.986;2023-04-09T00:30:45;19.83;;;14.30;;
5587;SDS011;2816;49.778;9.986;2023-04-09T00:33:13;24.93;;;16.50;;
5587;SDS011;2816;49.778;9.986;2023-04-09T00:35:40;23.60;;;14.80;;
5587;SDS011;2816;49.778;9.986;2023-04-09T00:38:07;20.73;;;14.43;;
5587;SDS011;2816;49.778;9.986;2023-04-09T00:40:34;21.30;;;14.27;;
5587;SDS011;2816;49.778;9.986;2023-04-09T00:43:01;23.17;;;14.90;;
5587;SDS011;2816;49.778;9.986;2023-04-09T00:45:28;24.40;;;14.37;;
5587;SDS011;2816;49.778;9.986;2023-04-09T00:47:55;20.23;;;13.30;;
5587;SDS011;2816;49.778;9.986;2023-04-09T00:50:24;19.43;;;14.03;;
5587;SDS011;2816;49.778;9.986;2023-04-09T00:52:51;23.03;;;14.20;;
5587;SDS011;2816;49.778;9.986;2023-04-09T00:55:17;22.53;;;14.47;;
5587;SDS011;2816;49.778;9.986;2023-04-09T00:57:46;19.17;;;13.50;;
5587;SDS011;2816;49.778;9.986;2023-04-09T01:00:13;21.50;;;14.03;;
5587;SDS011;2816;49.778;9.986;2023-04-09T01:02:40;20.10;;;13.03;;
5587;SDS011;2816;49.778;9.986;2023-04-09T01:05:08;21.33;;;13.53;;
5587;SDS011;2816;49.778;9.986;2023-04-09T01:07:40;21.67;;;14.77;;
5587;SDS011;2816;49.778;9.986;2023-04-09T01:10:21;19.13;;;14.20;;
5587;SDS011;2816;49.778;9.986;2023-04-09T01:12:56;20.23;;;14.37;;
5587;SDS011;2816;49.778;9.986;2023-04-09T01:15:30;25.33;;;14.77;;
5587;SDS011;2816;49.778;9.986;2023-04-09T01:18:02;22.80;;;15.60;;
5587;SDS011;2816;49.778;9.986;2023-04-09T01:20:34;22.03;;;15.10;;
5587;SDS011;2816;49.778;9.986;2023-04-09T01:23:13;26.53;;;15.73;;
5587;SDS011;2816;49.778;9.986;2023-04-09T01:25:52;22.43;;;15.60;;
5587;SDS011;2816;49.778;9.986;2023-04-09T01:28:32;23.87;;;15.77;;
5587;SDS011;2816;49.778;9.986;2023-04-09T01:31:01;21.87;;;15.20;;
5587;SDS011;2816;49.778;9.986;2023-04-09T01:33:32;22.23;;;15.27;;
5587;SDS011;2816;49.778;9.986;2023-04-09T01:36:00;19.20;;;13.33;;
5587;SDS011;2816;49.778;9.986;2023-04-09T01:38:29;20.03;;;14.70;;
5587;SDS011;2816;49.778;9.986;2023-04-09T01:40:58;20.27;;;13.83;;
5587;SDS011;2816;49.778;9.986;2023-04-09T01:43:26;22.57;;;15.53;;
5587;SDS011;2816;49.778;9.986;2023-04-09T01:45:55;18.00;;;12.27;;
5587;SDS011;2816;49.778;9.986;2023-04-09T01:48:23;21.83;;;15.53;;
5587;SDS011;2816;49.778;9.986;2023-04-09T01:50:51;21.33;;;14.47;;
5587;SDS011;2816;49.778;9.986;2023-04-09T01:53:19;22.40;;;15.67;;
5587;SDS011;2816;49.778;9.986;2023-04-09T01:55:47;20.23;;;14.60;;
5587;SDS011;2816;49.778;9.986;2023-04-09T01:58:14;21.73;;;14.97;;
5587;SDS011;2816;49.778;9.986;2023-04-09T02:00:42;24.17;;;15.90;;
5587;SDS011;2816;49.778;9.986;2023-04-09T02:03:15;25.77;;;16.00;;
5587;SDS011;2816;49.778;9.986;2023-04-09T02:05:48;19.97;;;15.17;;
5587;SDS011;2816;49.778;9.986;2023-04-09T02:08:19;22.20;;;15.80;;
5587;SDS011;2816;49.778;9.986;2023-04-09T02:10:48;16.90;;;12.33;;
5587;SDS011;2816;49.778;9.986;2023-04-09T02:13:19;20.00;;;14.57;;
5587;SDS011;2816;49.778;9.986;2023-04-09T02:15:48;22.53;;;15.40;;
5587;SDS011;2816;49.778;9.986;2023-04-09T02:18:21;21.83;;;15.53;;
5587;SDS011;2816;49.778;9.986;2023-04-09T02:20:52;23.33;;;15.20;;
5587;SDS011;2816;49.778;9.986;2023-04-09T02:23:20;24.97;;;16.20;;
5587;SDS011;2816;49.778;9.986;2023-04-09T02:25:47;23.70;;;15.57;;
5587;SDS011;2816;49.778;9.986;2023-04-09T02:28:14;23.80;;;16.30;;
5587;SDS011;2816;49.778;9.986;2023-04-09T02:30:41;22.23;;;15.97;;
5587;SDS011;2816;49.778;9.986;2023-04-09T02:33:08;24.80;;;17.00;;
5587;SDS011;2816;49.778;9.986;2023-04-09T02:35:37;21.83;;;15.93;;
5587;SDS011;2816;49.778;9.986;2023-04-09T02:38:04;20.90;;;15.30;;
5587;SDS011;2816;49.778;9.986;2023-04-09T02:40:32;22.60;;;15.77;;
5587;SDS011;2816;49.778;9.986;2023-04-09T02:42:59;23.53;;;15.80;;
5587;SDS011;2816;49.778;9.986;2023-04-09T02:45:25;26.27;;;17.07;;
5587;SDS011;2816;49.778;9.986;2023-04-09T02:47:52;23.90;;;16.33;;
5587;SDS011;2816;49.778;9.986;2023-04-09T02:50:19;26.00;;;17.50;;
5587;SDS011;2816;49.778;9.986;2023-04-09T02:52:48;24.90;;;17.47;;
5587;SDS011;2816;49.778;9.986;2023-04-09T02:55:15;24.97;;;17.07;;
5587;SDS011;2816;49.778;9.986;2023-04-09T02:57:43;25.30;;;17.47;;
5587;SDS011;2816;49.778;9.986;2023-04-09T03:00:10;25.67;;;17.37;;
5587;SDS011;2816;49.778;9.986;2023-04-09T03:02:38;29.13;;;18.10;;
5587;SDS011;2816;49.778;9.986;2023-04-09T03:05:05;27.53;;;17.97;;
5587;SDS011;2816;49.778;9.986;2023-04-09T03:07:32;26.00;;;18.10;;
5587;SDS011;2816;49.778;9.986;2023-04-09T03:10:01;27.90;;;18.50;;
5587;SDS011;2816;49.778;9.986;2023-04-09T03:12:28;20.10;;;14.47;;
5587;SDS011;2816;49.778;9.986;2023-04-09T03:14:55;27.20;;;17.80;;
5587;SDS011;2816;49.778;9.986;2023-04-09T03:17:21;26.90;;;18.07;;
5587;SDS011;2816;49.778;9.986;2023-04-09T03:19:51;28.47;;;19.53;;
5587;SDS011;2816;49.778;9.986;2023-04-09T03:22:18;27.47;;;17.87;;
5587;SDS011;2816;49.778;9.986;2023-04-09T03:24:45;27.67;;;18.10;;
5587;SDS011;2816;49.778;9.986;2023-04-09T03:27:13;27.90;;;19.00;;
5587;SDS011;2816;49.778;9.986;2023-04-09T03:29:40;30.80;;;19.97;;
5587;SDS011;2816;49.778;9.986;2023-04-09T03:32:07;27.00;;;18.20;;
5587;SDS011;2816;49.778;9.986;2023-04-09T03:34:34;26.30;;;18.07;;
5587;SDS011;2816;49.778;9.986;2023-04-09T03:37:01;27.07;;;18.80;;
5587;SDS011;2816;49.778;9.986;2023-04-09T03:39:27;25.33;;;17.53;;
5587;SDS011;2816;49.778;9.986;2023-04-09T03:41:55;29.27;;;19.20;;
5587;SDS011;2816;49.778;9.986;2023-04-09T03:44:24;29.87;;;19.63;;
5587;SDS011;2816;49.778;9.986;2023-04-09T03:46:51;25.90;;;17.40;;
5587;SDS011;2816;49.778;9.986;2023-04-09T03:49:18;26.37;;;18.03;;
5587;SDS011;2816;49.778;9.986;2023-04-09T03:51:45;27.70;;;18.70;;
5587;SDS011;2816;49.778;9.986;2023-04-09T03:54:12;28.67;;;18.63;;
5587;SDS011;2816;49.778;9.986;2023-04-09T03:56:39;27.33;;;19.00;;
5587;SDS011;2816;49.778;9.986;2023-04-09T03:59:05;28.53;;;17.83;;
5587;SDS011;2816;49.778;9.986;2023-04-09T04:01:34;24.67;;;18.20;;
5587;SDS011;2816;49.778;9.986;2023-04-09T04:04:01;28.23;;;19.60;;
5587;SDS011;2816;49.778;9.986;2023-04-09T04:06:28;29.67;;;19.93;;
5587;SDS011;2816;49.778;9.986;2023-04-09T04:08:55;24.13;;;17.07;;
5587;SDS011;2816;49.778;9.986;2023-04-09T04:11:22;32.67;;;19.17;;
5587;SDS011;2816;49.778;9.986;2023-04-09T04:13:49;24.87;;;17.87;;
5587;SDS011;2816;49.778;9.986;2023-04-09T04:16:16;24.97;;;17.47;;
5587;SDS011;2816;49.778;9.986;2023-04-09T04:18:44;28.60;;;20.30;;
5587;SDS011;2816;49.778;9.986;2023-04-09T04:21:11;30.40;;;20.10;;
5587;SDS011;2816;49.778;9.986;2023-04-09T04:23:39;29.57;;;18.73;;
5587;SDS011;2816;49.778;9.986;2023-04-09T04:26:06;27.10;;;17.90;;
5587;SDS011;2816;49.778;9.986;2023-04-09T04:28:35;28.80;;;19.10;;
5587;SDS011;2816;49.778;9.986;2023-04-09T04:31:05;32.10;;;20.00;;
5587;SDS011;2816;49.778;9.986;2023-04-09T04:33:33;34.70;;;20.20;;
5587;SDS011;2816;49.778;9.986;2023-04-09T04:36:05;27.80;;;19.20;;
5587;SDS011;2816;49.778;9.986;2023-04-09T04:38:33;28.87;;;18.87;;
5587;SDS011;2816;49.778;9.986;2023-04-09T04:41:00;31.63;;;19.17;;
5587;SDS011;2816;49.778;9.986;2023-04-09T04:43:28;30.90;;;20.50;;
5587;SDS011;2816;49.778;9.986;2023-04-09T04:45:54;29.17;;;18.97;;
5587;SDS011;2816;49.778;9.986;2023-04-09T04:48:21;27.33;;;18.27;;
5587;SDS011;2816;49.778;9.986;2023-04-09T04:50:53;27.63;;;19.07;;
5587;SDS011;2816;49.778;9.986;2023-04-09T04:53:22;25.23;;;18.80;;
5587;SDS011;2816;49.778;9.986;2023-04-09T04:55:49;28.90;;;19.30;;
5587;SDS011;2816;49.778;9.986;2023-04-09T04:58:16;27.77;;;18.80;;
5587;SDS011;2816;49.778;9.986;2023-04-09T05:00:43;29.00;;;19.00;;
5587;SDS011;2816;49.778;9.986;2023-04-09T05:03:10;28.50;;;19.03;;
5587;SDS011;2816;49.778;9.986;2023-04-09T05:05:37;30.43;;;19.50;;
5587;SDS011;2816;49.778;9.986;2023-04-09T05:08:04;23.90;;;16.57;;
5587;SDS011;2816;49.778;9.986;2023-04-09T05:10:33;33.27;;;20.47;;
5587;SDS011;2816;49.778;9.986;2023-04-09T05:13:00;31.53;;;20.00;;
5587;SDS011;2816;49.778;9.986;2023-04-09T05:15:27;27.67;;;19.10;;
5587;SDS011;2816;49.778;9.986;2023-04-09T05:17:54;21.90;;;15.53;;
5587;SDS011;2816;49.778;9.986;2023-04-09T05:20:22;23.13;;;16.13;;
5587;SDS011;2816;49.778;9.986;2023-04-09T05:22:49;27.37;;;18.23;;
5587;SDS011;2816;49.778;9.986;2023-04-09T05:25:16;31.50;;;20.37;;
5587;SDS011;2816;49.778;9.986;2023-04-09T05:27:44;25.30;;;16.87;;
5587;SDS011;2816;49.778;9.986;2023-04-09T05:30:11;28.73;;;18.30;;
5587;SDS011;2816;49.778;9.986;2023-04-09T05:32:38;32.00;;;19.80;;
5587;SDS011;2816;49.778;9.986;2023-04-09T05:35:05;29.87;;;19.47;;
5587;SDS011;2816;49.778;9.986;2023-04-09T05:37:32;31.13;;;20.80;;
5587;SDS011;2816;49.778;9.986;2023-04-09T05:40:00;25.83;;;17.67;;
5587;SDS011;2816;49.778;9.986;2023-04-09T05:42:27;30.77;;;19.67;;
5587;SDS011;2816;49.778;9.986;2023-04-09T05:44:55;26.00;;;17.53;;
5587;SDS011;2816;49.778;9.986;2023-04-09T05:47:22;26.67;;;18.40;;
5587;SDS011;2816;49.778;9.986;2023-04-09T05:49:49;24.07;;;16.53;;
5587;SDS011;2816;49.778;9.986;2023-04-09T05:52:16;26.30;;;18.10;;
5587;SDS011;2816;49.778;9.986;2023-04-09T05:54:43;26.50;;;17.57;;
5587;SDS011;2816;49.778;9.986;2023-04-09T05:57:11;24.67;;;17.70;;
5587;SDS011;2816;49.778;9.986;2023-04-09T05:59:37;25.77;;;18.00;;
5587;SDS011;2816;49.778;9.986;2023-04-09T06:02:06;27.87;;;19.27;;
5587;SDS011;2816;49.778;9.986;2023-04-09T06:04:33;23.63;;;17.50;;
5587;SDS011;2816;49.778;9.986;2023-04-09T06:07:00;25.70;;;18.57;;
5587;SDS011;2816;49.778;9.986;2023-04-09T06:09:27;23.90;;;16.70;;
5587;SDS011;2816;49.778;9.986;2023-04-09T06:11:53;27.50;;;18.57;;
5587;SDS011;2816;49.778;9.986;2023-04-09T06:14:21;25.77;;;17.90;;
5587;SDS011;2816;49.778;9.986;2023-04-09T06:16:48;26.97;;;18.40;;
5587;SDS011;2816;49.778;9.986;2023-04-09T06:19:17;25.97;;;18.87;;
5587;SDS011;2816;49.778;9.986;2023-04-09T06:21:44;26.97;;;17.40;;
5587;SDS011;2816;49.778;9.986;2023-04-09T06:24:11;23.80;;;16.67;;
5587;SDS011;2816;49.778;9.986;2023-04-09T06:26:37;29.80;;;18.80;;
5587;SDS011;2816;49.778;9.986;2023-04-09T06:29:05;28.77;;;18.63;;
5587;SDS011;2816;49.778;9.986;2023-04-09T06:31:31;26.07;;;17.80;;
5587;SDS011;2816;49.778;9.986;2023-04-09T06:33:59;25.87;;;18.20;;
5587;SDS011;2816;49.778;9.986;2023-04-09T06:36:27;32.13;;;18.77;;
5587;SDS011;2816;49.778;9.986;2023-04-09T06:38:54;25.60;;;17.80;;
5587;SDS011;2816;49.778;9.986;2023-04-09T06:41:21;22.30;;;15.93;;
5587;SDS011;2816;49.778;9.986;2023-04-09T06:43:49;24.37;;;17.93;;
5587;SDS011;2816;49.778;9.986;2023-04-09T06:46:16;23.83;;;15.40;;
5587;SDS011;2816;49.778;9.986;2023-04-09T06:48:44;20.90;;;15.53;;
5587;SDS011;2816;49.778;9.986;2023-04-09T06:51:11;24.70;;;17.17;;
5587;SDS011;2816;49.778;9.986;2023-04-09T06:53:40;25.17;;;17.00;;
5587;SDS011;2816;49.778;9.986;2023-04-09T06:56:07;28.50;;;17.60;;
5587;SDS011;2816;49.778;9.986;2023-04-09T06:58:34;25.10;;;17.57;;
5587;SDS011;2816;49.778;9.986;2023-04-09T07:01:01;23.73;;;18.03;;
5587;SDS011;2816;49.778;9.986;2023-04-09T07:03:28;26.40;;;16.60;;
5587;SDS011;2816;49.778;9.986;2023-04-09T07:05:55;22.03;;;16.10;;
5587;SDS011;2816;49.778;9.986;2023-04-09T07:08:23;23.90;;;16.53;;
5587;SDS011;2816;49.778;9.986;2023-04-09T07:10:51;23.80;;;16.57;;
5587;SDS011;2816;49.778;9.986;2023-04-09T07:13:18;25.07;;;17.50;;
5587;SDS011;2816;49.778;9.986;2023-04-09T07:15:45;25.03;;;17.10;;
5587;SDS011;2816;49.778;9.986;2023-04-09T07:18:12;23.37;;;16.20;;
5587;SDS011;2816;49.778;9.986;2023-04-09T07:20:39;20.30;;;14.97;;
5587;SDS011;2816;49.778;9.986;2023-04-09T07:23:06;20.30;;;14.80;;
5587;SDS011;2816;49.778;9.986;2023-04-09T07:25:33;25.07;;;16.87;;
5587;SDS011;2816;49.778;9.986;2023-04-09T07:28:01;21.20;;;15.93;;
5587;SDS011;2816;49.778;9.986;2023-04-09T07:30:28;22.33;;;15.40;;
5587;SDS011;2816;49.778;9.986;2023-04-09T07:32:55;20.73;;;15.10;;
5587;SDS011;2816;49.778;9.986;2023-04-09T07:35:22;22.13;;;16.43;;
5587;SDS011;2816;49.778;9.986;2023-04-09T07:37:49;21.73;;;13.47;;
5587;SDS011;2816;49.778;9.986;2023-04-09T07:40:16;21.77;;;15.93;;
5587;SDS011;2816;49.778;9.986;2023-04-09T07:42:44;20.43;;;14.80;;
5587;SDS011;2816;49.778;9.986;2023-04-09T07:45:12;18.53;;;14.77;;
5587;SDS011;2816;49.778;9.986;2023-04-09T07:47:39;22.37;;;16.07;;
5587;SDS011;2816;49.778;9.986;2023-04-09T07:50:06;22.10;;;14.97;;
5587;SDS011;2816;49.778;9.986;2023-04-09T07:52:34;20.60;;;15.30;;
5587;SDS011;2816;49.778;9.986;2023-04-09T07:55:01;19.30;;;14.63;;
5587;SDS011;2816;49.778;9.986;2023-04-09T07:57:29;20.43;;;14.13;;
5587;SDS011;2816;49.778;9.986;2023-04-09T07:59:56;20.03;;;14.67;;
5587;SDS011;2816;49.778;9.986;2023-04-09T08:02:24;16.73;;;13.50;;
5587;SDS011;2816;49.778;9.986;2023-04-09T08:04:51;21.27;;;14.77;;
5587;SDS011;2816;49.778;9.986;2023-04-09T08:07:18;22.63;;;16.40;;
5587;SDS011;2816;49.778;9.986;2023-04-09T08:09:45;20.57;;;14.40;;
5587;SDS011;2816;49.778;9.986;2023-04-09T08:12:12;24.03;;;15.67;;
5587;SDS011;2816;49.778;9.986;2023-04-09T08:14:39;19.60;;;15.07;;
5587;SDS011;2816;49.778;9.986;2023-04-09T08:17:07;22.70;;;16.07;;
5587;SDS011;2816;49.778;9.986;2023-04-09T08:19:36;23.30;;;16.30;;
5587;SDS011;2816;49.778;9.986;2023-04-09T08:22:03;19.77;;;14.03;;
5587;SDS011;2816;49.778;9.986;2023-04-09T08:24:30;20.63;;;14.63;;
5587;SDS011;2816;49.778;9.986;2023-04-09T08:26:57;18.43;;;14.70;;
5587;SDS011;2816;49.778;9.986;2023-04-09T08:29:24;17.87;;;14.00;;
5587;SDS011;2816;49.778;9.986;2023-04-09T08:31:51;20.90;;;15.50;;
5587;SDS011;2816;49.778;9.986;2023-04-09T08:34:18;17.87;;;14.20;;
5587;SDS011;2816;49.778;9.986;2023-04-09T08:36:47;18.77;;;14.50;;
5587;SDS011;2816;49.778;9.986;2023-04-09T08:39:14;21.00;;;14.70;;
5587;SDS011;2816;49.778;9.986;2023-04-09T08:41:43;19.50;;;15.23;;
5587;SDS011;2816;49.778;9.986;2023-04-09T08:44:11;17.73;;;13.70;;
5587;SDS011;2816;49.778;9.986;2023-04-09T08:46:38;15.23;;;12.30;;
5587;SDS011;2816;49.778;9.986;2023-04-09T08:49:07;17.47;;;13.53;;
5587;SDS011;2816;49.778;9.986;2023-04-09T08:51:34;20.57;;;12.63;;
5587;SDS011;2816;49.778;9.986;2023-04-09T08:54:02;16.80;;;12.30;;
5587;SDS011;2816;49.778;9.986;2023-04-09T08:56:29;16.90;;;13.37;;
5587;SDS011;2816;49.778;9.986;2023-04-09T08:58:56;15.40;;;11.90;;
5587;SDS011;2816;49.778;9.986;2023-04-09T09:01:23;14.53;;;12.03;;
5587;SDS011;2816;49.778;9.986;2023-04-09T09:03:52;16.53;;;12.40;;
5587;SDS011;2816;49.778;9.986;2023-04-09T09:06:21;13.57;;;11.47;;
5587;SDS011;2816;49.778;9.986;2023-04-09T09:09:00;18.00;;;13.47;;
5587;SDS011;2816;49.778;9.986;2023-04-09T09:11:30;13.80;;;10.90;;
5587;SDS011;2816;49.778;9.986;2023-04-09T09:13:57;14.77;;;10.90;;
5587;SDS011;2816;49.778;9.986;2023-04-09T09:16:25;15.10;;;11.97;;
5587;SDS011;2816;49.778;9.986;2023-04-09T09:18:53;16.37;;;12.27;;
5587;SDS011;2816;49.778;9.986;2023-04-09T09:21:21;13.83;;;10.90;;
5587;SDS011;2816;49.778;9.986;2023-04-09T09:23:48;16.30;;;12.43;;
5587;SDS011;2816;49.778;9.986;2023-04-09T09:26:17;12.57;;;11.00;;
5587;SDS011;2816;49.778;9.986;2023-04-09T09:28:47;13.37;;;11.70;;
5587;SDS011;2816;49.778;9.986;2023-04-09T09:31:15;14.50;;;11.10;;
5587;SDS011;2816;49.778;9.986;2023-04-09T09:33:43;14.53;;;11.77;;
5587;SDS011;2816;49.778;9.986;2023-04-09T09:36:11;18.20;;;11.40;;
5587;SDS011;2816;49.778;9.986;2023-04-09T09:38:49;13.47;;;11.07;;
5587;SDS011;2816;49.778;9.986;2023-04-09T09:41:19;12.63;;;9.97;;
5587;SDS011;2816;49.778;9.986;2023-04-09T09:43:46;13.00;;;10.13;;
5587;SDS011;2816;49.778;9.986;2023-04-09T09:46:14;14.53;;;11.10;;
5587;SDS011;2816;49.778;9.986;2023-04-09T09:48:42;12.83;;;10.90;;
5587;SDS011;2816;49.778;9.986;2023-04-09T09:51:10;13.10;;;11.20;;
5587;SDS011;2816;49.778;9.986;2023-04-09T09:53:38;12.67;;;10.43;;
5587;SDS011;2816;49.778;9.986;2023-04-09T09:56:10;12.10;;;9.73;;
5587;SDS011;2816;49.778;9.986;2023-04-09T09:58:43;11.90;;;10.03;;
5587;SDS011;2816;49.778;9.986;2023-04-09T10:01:14;12.83;;;9.43;;
5587;SDS011;2816;49.778;9.986;2023-04-09T10:03:45;12.10;;;10.03;;
5587;SDS011;2816;49.778;9.986;2023-04-09T10:06:12;12.50;;;9.97;;
5587;SDS011;2816;49.778;9.986;2023-04-09T10:08:39;11.00;;;9.33;;
5587;SDS011;2816;49.778;9.986;2023-04-09T10:11:08;13.43;;;10.60;;
5587;SDS011;2816;49.778;9.986;2023-04-09T10:13:37;10.40;;;9.27;;
5587;SDS011;2816;49.778;9.986;2023-04-09T10:16:07;10.90;;;8.23;;
5587;SDS011;2816;49.778;9.986;2023-04-09T10:18:35;11.57;;;8.13;;
5587;SDS011;2816;49.778;9.986;2023-04-09T10:21:06;8.03;;;6.97;;
5587;SDS011;2816;49.778;9.986;2023-04-09T10:23:38;9.33;;;7.13;;
5587;SDS011;2816;49.778;9.986;2023-04-09T10:26:07;10.67;;;8.73;;
5587;SDS011;2816;49.778;9.986;2023-04-09T10:28:35;21.97;;;17.17;;
5587;SDS011;2816;49.778;9.986;2023-04-09T10:31:03;12.53;;;10.00;;
5587;SDS011;2816;49.778;9.986;2023-04-09T10:33:35;11.90;;;9.23;;
5587;SDS011;2816;49.778;9.986;2023-04-09T10:36:04;7.00;;;6.30;;
5587;SDS011;2816;49.778;9.986;2023-04-09T10:38:32;8.80;;;7.00;;
5587;SDS011;2816;49.778;9.986;2023-04-09T10:41:08;7.30;;;6.33;;
5587;SDS011;2816;49.778;9.986;2023-04-09T10:43:40;8.33;;;7.23;;
5587;SDS011;2816;49.778;9.986;2023-04-09T10:51:35;9.13;;;7.80;;
5587;SDS011;2816;49.778;9.986;2023-04-09T10:54:03;8.63;;;7.00;;
5587;SDS011;2816;49.778;9.986;2023-04-09T10:56:31;8.30;;;6.87;;
5587;SDS011;2816;49.778;9.986;2023-04-09T10:58:58;7.83;;;6.27;;
5587;SDS011;2816;49.778;9.986;2023-04-09T11:01:25;7.43;;;6.30;;
5587;SDS011;2816;49.778;9.986;2023-04-09T11:04:06;6.00;;;5.40;;
5587;SDS011;2816;49.778;9.986;2023-04-09T11:06:42;5.77;;;5.17;;
5587;SDS011;2816;49.778;9.986;2023-04-09T11:09:10;6.33;;;5.70;;
5587;SDS011;2816;49.778;9.986;2023-04-09T11:11:37;6.63;;;5.60;;
5587;SDS011;2816;49.778;9.986;2023-04-09T11:14:04;7.00;;;6.07;;
5587;SDS011;2816;49.778;9.986;2023-04-09T11:16:33;5.50;;;4.83;;
5587;SDS011;2816;49.778;9.986;2023-04-09T11:19:00;5.80;;;5.10;;
5587;SDS011;2816;49.778;9.986;2023-04-09T11:21:29;6.60;;;5.60;;
5587;SDS011;2816;49.778;9.986;2023-04-09T11:23:56;5.97;;;5.37;;
5587;SDS011;2816;49.778;9.986;2023-04-09T11:26:24;6.33;;;5.57;;
5587;SDS011;2816;49.778;9.986;2023-04-09T11:29:03;5.03;;;4.53;;
5587;SDS011;2816;49.778;9.986;2023-04-09T11:31:31;5.50;;;4.90;;
5587;SDS011;2816;49.778;9.986;2023-04-09T11:33:58;5.13;;;4.63;;
5587;SDS011;2816;49.778;9.986;2023-04-09T11:36:25;6.43;;;4.80;;
5587;SDS011;2816;49.778;9.986;2023-04-09T11:38:53;5.70;;;4.67;;
5587;SDS011;2816;49.778;9.986;2023-04-09T11:41:31;5.33;;;4.80;;
5587;SDS011;2816;49.778;9.986;2023-04-09T11:44:00;6.23;;;5.13;;
5587;SDS011;2816;49.778;9.986;2023-04-09T11:46:28;5.37;;;4.70;;
5587;SDS011;2816;49.778;9.986;2023-04-09T11:48:57;6.43;;;5.43;;
5587;SDS011;2816;49.778;9.986;2023-04-09T11:51:25;5.90;;;5.30;;
5587;SDS011;2816;49.778;9.986;2023-04-09T11:53:53;6.83;;;5.20;;
5587;SDS011;2816;49.778;9.986;2023-04-09T11:56:20;5.93;;;5.20;;
5587;SDS011;2816;49.778;9.986;2023-04-09T11:58:48;4.77;;;4.27;;
5587;SDS011;2816;49.778;9.986;2023-04-09T12:01:15;5.53;;;5.03;;
5587;SDS011;2816;49.778;9.986;2023-04-09T12:03:42;7.80;;;5.80;;
5587;SDS011;2816;49.778;9.986;2023-04-09T12:06:08;6.60;;;5.90;;
5587;SDS011;2816;49.778;9.986;2023-04-09T12:08:35;5.07;;;4.57;;
5587;SDS011;2816;49.778;9.986;2023-04-09T12:11:10;6.37;;;5.50;;
5587;SDS011;2816;49.778;9.986;2023-04-09T12:13:38;7.90;;;6.20;;
5587;SDS011;2816;49.778;9.986;2023-04-09T12:16:07;5.80;;;5.20;;
5587;SDS011;2816;49.778;9.986;2023-04-09T12:18:34;6.53;;;5.90;;
5587;SDS011;2816;49.778;9.986;2023-04-09T12:21:02;7.63;;;6.07;;
5587;SDS011;2816;49.778;9.986;2023-04-09T12:23:30;7.53;;;5.50;;
5587;SDS011;2816;49.778;9.986;2023-04-09T12:25:57;8.33;;;5.93;;
5587;SDS011;2816;49.778;9.986;2023-04-09T12:28:27;5.67;;;5.17;;
5587;SDS011;2816;49.778;9.986;2023-04-09T12:30:54;6.33;;;5.47;;
5587;SDS011;2816;49.778;9.986;2023-04-09T12:33:22;6.77;;;5.50;;
5587;SDS011;2816;49.778;9.986;2023-04-09T12:35:49;6.17;;;5.50;;
5587;SDS011;2816;49.778;9.986;2023-04-09T12:38:16;6.63;;;5.93;;
5587;SDS011;2816;49.778;9.986;2023-04-09T12:40:43;6.03;;;5.43;;
5587;SDS011;2816;49.778;9.986;2023-04-09T12:43:10;11.40;;;6.10;;
5587;SDS011;2816;49.778;9.986;2023-04-09T12:45:38;7.57;;;6.17;;
5587;SDS011;2816;49.778;9.986;2023-04-09T12:48:05;6.67;;;5.60;;
5587;SDS011;2816;49.778;9.986;2023-04-09T12:50:32;5.70;;;5.03;;
5587;SDS011;2816;49.778;9.986;2023-04-09T12:52:59;7.33;;;6.00;;
5587;SDS011;2816;49.778;9.986;2023-04-09T12:55:26;6.90;;;6.20;;
5587;SDS011;2816;49.778;9.986;2023-04-09T12:57:53;5.77;;;5.17;;
5587;SDS011;2816;49.778;9.986;2023-04-09T13:00:20;8.43;;;6.87;;
5587;SDS011;2816;49.778;9.986;2023-04-09T13:02:48;6.90;;;6.13;;
5587;SDS011;2816;49.778;9.986;2023-04-09T13:05:16;5.70;;;4.93;;
5587;SDS011;2816;49.778;9.986;2023-04-09T13:07:43;5.93;;;5.33;;
5587;SDS011;2816;49.778;9.986;2023-04-09T13:10:10;6.30;;;5.33;;
5587;SDS011;2816;49.778;9.986;2023-04-09T13:12:37;6.97;;;5.77;;
5587;SDS011;2816;49.778;9.986;2023-04-09T13:15:05;8.30;;;6.67;;
5587;SDS011;2816;49.778;9.986;2023-04-09T13:17:32;7.97;;;6.40;;
5587;SDS011;2816;49.778;9.986;2023-04-09T13:20:00;6.53;;;5.83;;
5587;SDS011;2816;49.778;9.986;2023-04-09T13:22:27;6.63;;;5.83;;
5587;SDS011;2816;49.778;9.986;2023-04-09T13:24:54;7.13;;;6.30;;
5587;SDS011;2816;49.778;9.986;2023-04-09T13:27:21;7.33;;;6.57;;
5587;SDS011;2816;49.778;9.986;2023-04-09T13:29:48;7.83;;;7.00;;
5587;SDS011;2816;49.778;9.986;2023-04-09T13:32:15;6.70;;;6.10;;
5587;SDS011;2816;49.778;9.986;2023-04-09T13:34:43;8.77;;;6.40;;
5587;SDS011;2816;49.778;9.986;2023-04-09T13:37:11;7.63;;;6.10;;
5587;SDS011;2816;49.778;9.986;2023-04-09T13:39:38;7.10;;;5.80;;
5587;SDS011;2816;49.778;9.986;2023-04-09T13:42:05;9.53;;;7.20;;
5587;SDS011;2816;49.778;9.986;2023-04-09T13:44:32;11.87;;;6.90;;
5587;SDS011;2816;49.778;9.986;2023-04-09T13:47:00;7.73;;;6.53;;
5587;SDS011;2816;49.778;9.986;2023-04-09T13:49:27;6.80;;;5.60;;
5587;SDS011;2816;49.778;9.986;2023-04-09T13:51:54;5.93;;;5.33;;
5587;SDS011;2816;49.778;9.986;2023-04-09T13:54:23;6.83;;;6.13;;
5587;SDS011;2816;49.778;9.986;2023-04-09T13:56:50;8.40;;;5.80;;
5587;SDS011;2816;49.778;9.986;2023-04-09T13:59:16;6.57;;;5.10;;
5587;SDS011;2816;49.778;9.986;2023-04-09T14:01:43;6.63;;;5.63;;
5587;SDS011;2816;49.778;9.986;2023-04-09T14:04:10;7.23;;;6.13;;
5587;SDS011;2816;49.778;9.986;2023-04-09T14:06:37;7.77;;;6.37;;
5587;SDS011;2816;49.778;9.986;2023-04-09T14:09:04;5.80;;;5.30;;
5587;SDS011;2816;49.778;9.986;2023-04-09T14:11:33;5.70;;;5.10;;
5587;SDS011;2816;49.778;9.986;2023-04-09T14:14:00;7.47;;;6.53;;
5587;SDS011;2816;49.778;9.986;2023-04-09T14:16:27;6.60;;;5.70;;
5587;SDS011;2816;49.778;9.986;2023-04-09T14:18:54;6.67;;;5.90;;
5587;SDS011;2816;49.778;9.986;2023-04-09T14:21:21;7.13;;;6.13;;
5587;SDS011;2816;49.778;9.986;2023-04-09T14:23:48;7.77;;;6.47;;
5587;SDS011;2816;49.778;9.986;2023-04-09T14:26:16;6.83;;;6.13;;
5587;SDS011;2816;49.778;9.986;2023-04-09T14:28:44;6.53;;;5.87;;
5587;SDS011;2816;49.778;9.986;2023-04-09T14:31:11;7.43;;;6.20;;
5587;SDS011;2816;49.778;9.986;2023-04-09T14:33:39;6.00;;;5.40;;
5587;SDS011;2816;49.778;9.986;2023-04-09T14:36:06;5.77;;;5.17;;
5587;SDS011;2816;49.778;9.986;2023-04-09T14:38:34;5.63;;;5.03;;
5587;SDS011;2816;49.778;9.986;2023-04-09T14:41:00;6.57;;;5.10;;
5587;SDS011;2816;49.778;9.986;2023-04-09T14:43:27;5.73;;;5.13;;
5587;SDS011;2816;49.778;9.986;2023-04-09T14:45:56;5.67;;;4.93;;
5587;SDS011;2816;49.778;9.986;2023-04-09T14:48:23;6.30;;;5.27;;
5587;SDS011;2816;49.778;9.986;2023-04-09T14:50:50;5.80;;;5.10;;
5587;SDS011;2816;49.778;9.986;2023-04-09T14:53:17;6.80;;;5.30;;
5587;SDS011;2816;49.778;9.986;2023-04-09T14:55:43;5.60;;;5.00;;
5587;SDS011;2816;49.778;9.986;2023-04-09T14:58:10;6.33;;;5.40;;
5587;SDS011;2816;49.778;9.986;2023-04-09T15:00:37;7.17;;;5.80;;
5587;SDS011;2816;49.778;9.986;2023-04-09T15:03:06;5.17;;;4.67;;
5587;SDS011;2816;49.778;9.986;2023-04-09T15:05:33;6.80;;;5.97;;